Time;durP1;ratioP1;P1;durP2;ratioP2;P2;SDS_P1;SDS_P2;PMS_P1;PMS_P2;Temp;Humidity;BMP_temperature;BMP_pressure;BME280_temperature;BME280_humidity;BME280_pressure;Samples;Min_cycle;Max_cycle;Signal;HPM_P1;HPM_P2
2021/03/11 00:02:10;;;;;;;44.28;23.45;;;7.20;99.90;;;;;;5091940;28;20028;-55
2021/03/11 00:04:35;;;;;;;45.30;23.23;;;7.20;99.90;;;;;;5093406;28;20056;-56
2021/03/11 00:07:01;;;;;;;42.25;22.27;;;7.20;99.90;;;;;;5092759;28;20016;-55
2021/03/11 00:09:26;;;;;;;47.63;21.83;;;7.20;99.90;;;;;;5090346;28;20128;-53
2021/03/11 00:11:52;;;;;;;47.92;22.38;;;7.30;99.90;;;;;;5090446;28;20493;-52
2021/03/11 00:14:17;;;;;;;41.13;20.90;;;7.30;99.90;;;;;;5092756;28;20036;-53
2021/03/11 00:16:43;;;;;;;47.40;23.45;;;7.30;99.90;;;;;;5093000;28;20035;-49
2021/03/11 00:19:08;;;;;;;47.13;22.08;;;7.30;99.90;;;;;;5091383;28;20030;-53
2021/03/11 00:21:34;;;;;;;50.75;22.85;;;7.30;99.90;;;;;;5090309;28;20103;-54
2021/03/11 00:24:00;;;;;;;48.85;23.00;;;7.30;99.90;;;;;;5093413;28;20055;-51
2021/03/11 00:26:25;;;;;;;44.58;22.20;;;7.30;99.90;;;;;;5092326;28;20032;-52
2021/03/11 00:28:51;;;;;;;42.97;21.30;;;7.40;99.90;;;;;;5089687;28;20040;-53
2021/03/11 00:31:16;;;;;;;36.22;18.35;;;7.40;99.90;;;;;;5090825;28;20032;-57
2021/03/11 00:33:42;;;;;;;42.22;18.38;;;7.40;99.90;;;;;;5093200;28;20085;-51
2021/03/11 00:36:07;;;;;;;38.50;19.70;;;7.60;99.90;;;;;;5092492;28;20031;-51
2021/03/11 00:38:33;;;;;;;34.90;18.38;;;7.70;99.90;;;;;;5089546;28;20032;-53
2021/03/11 00:40:58;;;;;;;35.42;17.73;;;7.80;99.90;;;;;;5092208;28;20032;-55
2021/03/11 00:43:24;;;;;;;39.78;18.13;;;7.80;99.90;;;;;;5090834;28;20035;-52
2021/03/11 00:45:49;;;;;;;37.17;18.33;;;8.00;99.90;;;;;;5092473;28;20028;-53
2021/03/11 00:48:15;;;;;;;31.42;16.90;;;8.00;99.90;;;;;;5087778;28;20810;-53
2021/03/11 00:50:41;;;;;;;36.30;16.88;;;8.00;99.90;;;;;;5092234;28;20024;-52
2021/03/11 00:53:07;;;;;;;32.25;16.60;;;8.00;99.90;;;;;;5092112;28;20046;-52
2021/03/11 00:58:54;;;;;;;31.25;16.65;;;8.20;99.90;;;;;;5085983;28;20566;-56
2021/03/11 01:01:20;;;;;;;29.92;16.27;;;8.30;99.90;;;;;;5086997;28;20064;-56
2021/03/11 01:03:45;;;;;;;30.30;16.17;;;8.30;99.90;;;;;;5091927;28;20053;-55
2021/03/11 01:06:11;;;;;;;31.02;15.82;;;8.40;99.90;;;;;;5091832;28;20063;-54
2021/03/11 01:08:36;;;;;;;28.75;15.13;;;8.40;99.90;;;;;;5091935;28;20485;-56
2021/03/11 01:11:03;;;;;;;23.92;12.57;;;8.40;99.90;;;;;;5089588;28;20020;-53
2021/03/11 01:13:29;;;;;;;32.78;13.73;;;8.60;99.90;;;;;;5086896;28;20025;-54
2021/03/11 01:16:16;;;;;;;26.15;13.60;;;8.70;99.90;;;;;;5090705;28;20027;-51
2021/03/11 01:18:42;;;;;;;26.40;13.38;;;8.60;99.90;;;;;;5086396;28;20433;-54
2021/03/11 01:21:07;;;;;;;27.35;12.98;;;8.60;99.90;;;;;;5086996;28;20028;-51
2021/03/11 01:23:33;;;;;;;30.90;13.25;;;8.60;99.90;;;;;;5091567;28;20036;-51
2021/03/11 01:25:58;;;;;;;21.95;10.82;;;8.60;99.90;;;;;;5085489;28;20036;-52
2021/03/11 01:28:24;;;;;;;26.48;10.93;;;8.70;99.90;;;;;;5089672;28;20055;-54
2021/03/11 01:30:49;;;;;;;20.42;11.25;;;8.60;99.90;;;;;;5090808;28;20685;-56
2021/03/11 01:33:15;;;;;;;16.00;9.30;;;8.60;99.90;;;;;;5091421;28;20040;-55
2021/03/11 01:35:41;;;;;;;18.10;9.55;;;8.60;99.90;;;;;;5091512;28;20027;-53
2021/03/11 01:38:06;;;;;;;18.27;9.60;;;8.70;99.90;;;;;;5091342;28;20028;-54
2021/03/11 01:40:33;;;;;;;14.05;7.97;;;8.70;99.90;;;;;;5091390;28;20026;-54
2021/03/11 01:42:59;;;;;;;14.95;7.95;;;8.60;99.90;;;;;;5088434;28;20020;-55
2021/03/11 01:45:25;;;;;;;14.73;7.65;;;8.70;99.90;;;;;;5091483;28;20435;-55
2021/03/11 01:47:51;;;;;;;16.63;7.95;;;8.70;99.90;;;;;;5091294;28;20523;-55
2021/03/11 01:50:17;;;;;;;12.57;7.00;;;8.80;99.90;;;;;;5089688;28;20068;-53
2021/03/11 01:52:43;;;;;;;15.18;7.75;;;8.70;99.90;;;;;;5090481;28;20014;-56
2021/03/11 01:55:09;;;;;;;11.20;6.80;;;8.70;99.90;;;;;;5090844;28;20069;-55
2021/03/11 01:57:36;;;;;;;12.55;7.45;;;8.70;99.90;;;;;;5088979;28;20025;-53
2021/03/11 02:00:06;;;;;;;12.25;6.47;;;8.70;99.90;;;;;;5088074;28;20506;-54
2021/03/11 02:02:31;;;;;;;11.02;5.80;;;8.70;99.90;;;;;;5090412;28;20549;-52
2021/03/11 02:04:57;;;;;;;14.48;6.63;;;8.70;99.90;;;;;;5089261;28;20027;-52
2021/03/11 02:07:22;;;;;;;8.70;5.53;;;8.70;99.90;;;;;;5088470;28;20024;-51
2021/03/11 02:09:48;;;;;;;10.95;5.60;;;8.70;99.90;;;;;;5090746;28;20099;-55
2021/03/11 02:12:32;;;;;;;9.93;5.43;;;8.80;99.90;;;;;;5090102;28;20031;-55
2021/03/11 02:15:35;;;;;;;9.03;5.27;;;8.70;99.90;;;;;;5087020;28;20016;-52
2021/03/11 02:18:29;;;;;;;7.93;4.82;;;8.80;99.90;;;;;;5090676;28;20032;-52
2021/03/11 02:21:11;;;;;;;10.10;4.78;;;8.80;99.90;;;;;;5090695;28;20028;-55
2021/03/11 02:23:46;;;;;;;8.32;5.07;;;8.80;99.90;;;;;;5090751;28;20060;-55
2021/03/11 02:26:45;;;;;;;7.88;5.60;;;8.80;99.90;;;;;;5085623;28;20042;-53
2021/03/11 02:29:33;;;;;;;8.32;4.90;;;8.80;99.90;;;;;;5085281;28;20391;-56
2021/03/11 02:32:02;;;;;;;7.82;4.68;;;8.80;99.90;;;;;;5079334;28;20083;-54
2021/03/11 02:34:34;;;;;;;7.68;4.68;;;8.80;99.90;;;;;;5086053;28;20032;-53
2021/03/11 02:37:22;;;;;;;7.13;4.47;;;8.80;99.90;;;;;;5086385;28;20017;-54
2021/03/11 02:39:55;;;;;;;6.50;4.05;;;8.80;99.90;;;;;;5072981;28;20036;-56
2021/03/11 02:42:23;;;;;;;7.97;4.15;;;8.80;99.90;;;;;;5085373;28;20032;-55
2021/03/11 02:44:50;;;;;;;9.13;4.72;;;8.90;99.90;;;;;;5082756;28;20052;-55
2021/03/11 02:47:15;;;;;;;9.38;4.38;;;8.90;99.90;;;;;;5085402;28;20028;-51
2021/03/11 02:49:43;;;;;;;10.45;4.88;;;8.90;99.90;;;;;;5090227;28;20031;-55
2021/03/11 02:52:09;;;;;;;8.63;4.93;;;8.90;99.90;;;;;;5089092;28;20028;-52
2021/03/11 02:54:36;;;;;;;7.38;4.28;;;8.90;99.90;;;;;;5089876;28;20024;-51
2021/03/11 02:57:03;;;;;;;9.80;5.05;;;8.90;99.90;;;;;;5089251;28;20028;-52
2021/03/11 02:59:30;;;;;;;6.50;4.20;;;8.90;99.90;;;;;;5090095;28;20016;-52
2021/03/11 03:02:01;;;;;;;9.82;5.25;;;8.80;99.90;;;;;;5088412;28;20037;-55
2021/03/11 03:04:29;;;;;;;7.78;4.60;;;8.90;99.90;;;;;;5090097;28;20032;-54
2021/03/11 03:06:55;;;;;;;7.85;4.65;;;8.90;99.90;;;;;;5089187;28;20146;-56
2021/03/11 03:09:21;;;;;;;8.50;4.30;;;8.90;99.90;;;;;;5090097;28;20035;-54
2021/03/11 03:11:48;;;;;;;7.78;4.30;;;8.90;99.90;;;;;;5087987;28;20040;-55
2021/03/11 03:14:15;;;;;;;7.25;4.50;;;8.90;99.90;;;;;;5083172;28;20082;-53
2021/03/11 03:16:41;;;;;;;9.30;5.03;;;8.90;99.90;;;;;;5089843;28;20024;-54
2021/03/11 03:19:09;;;;;;;8.00;4.53;;;9.00;99.90;;;;;;5090196;28;20032;-54
2021/03/11 03:21:36;;;;;;;9.00;5.03;;;8.90;99.90;;;;;;5088716;28;20131;-55
2021/03/11 03:30:46;;;;;;;8.43;5.10;;;9.00;99.90;;;;;;5081000;28;20778;-52
2021/03/11 03:33:13;;;;;;;9.32;4.85;;;9.00;99.90;;;;;;5088957;28;20493;-53
2021/03/11 03:35:39;;;;;;;8.60;4.28;;;9.00;99.90;;;;;;5089409;28;20078;-54
2021/03/11 03:38:05;;;;;;;7.97;4.35;;;9.00;99.90;;;;;;5088741;28;20028;-56
2021/03/11 03:40:30;;;;;;;9.38;5.05;;;9.00;99.90;;;;;;5089469;28;20103;-56
2021/03/11 03:43:05;;;;;;;8.20;4.93;;;8.90;99.90;;;;;;5088810;28;20055;-54
2021/03/11 03:45:34;;;;;;;9.57;4.60;;;9.00;99.90;;;;;;5089768;28;20532;-55
2021/03/11 03:48:02;;;;;;;8.07;4.60;;;9.00;99.90;;;;;;5089172;28;20416;-55
2021/03/11 03:50:29;;;;;;;7.18;4.93;;;9.00;99.90;;;;;;5090001;28;20083;-56
2021/03/11 03:52:57;;;;;;;7.50;4.40;;;9.00;99.90;;;;;;5088571;28;20082;-52
2021/03/11 03:55:24;;;;;;;9.45;4.90;;;8.90;99.90;;;;;;5088626;28;20115;-52
2021/03/11 03:57:54;;;;;;;9.55;4.82;;;9.00;99.90;;;;;;5089231;28;20028;-56
2021/03/11 04:00:21;;;;;;;8.15;4.50;;;9.00;99.90;;;;;;5088330;28;20477;-54
2021/03/11 04:02:51;;;;;;;7.22;3.75;;;8.90;99.90;;;;;;5088124;28;20070;-52
2021/03/11 04:05:18;;;;;;;7.45;4.28;;;8.90;99.90;;;;;;5088439;28;20658;-52
2021/03/11 04:07:45;;;;;;;10.07;4.45;;;8.90;99.90;;;;;;5088950;28;20111;-54
2021/03/11 04:10:12;;;;;;;8.75;4.18;;;9.00;99.90;;;;;;5089160;28;20076;-52
2021/03/11 04:12:39;;;;;;;9.88;4.93;;;9.00;99.90;;;;;;5088960;28;20497;-53
2021/03/11 04:15:06;;;;;;;9.65;4.78;;;9.00;99.90;;;;;;5082622;28;20020;-56
2021/03/11 04:17:33;;;;;;;7.13;4.43;;;9.00;99.90;;;;;;5081990;28;20032;-54
2021/03/11 04:20:02;;;;;;;7.28;4.57;;;9.10;99.90;;;;;;5088256;28;20025;-53
2021/03/11 04:22:28;;;;;;;5.88;4.03;;;9.10;99.90;;;;;;5088757;28;20059;-56
2021/03/11 04:24:55;;;;;;;7.28;4.75;;;9.10;99.90;;;;;;5084073;28;20024;-56
2021/03/11 04:27:21;;;;;;;6.80;3.63;;;9.10;99.90;;;;;;5086933;28;20020;-55
2021/03/11 04:29:47;;;;;;;6.70;4.20;;;9.10;99.90;;;;;;5097820;22;20528;-56
2021/03/11 04:32:13;;;;;;;6.80;3.97;;;9.20;99.90;;;;;;5072646;28;20033;-55
2021/03/11 04:34:39;;;;;;;6.95;4.20;;;9.20;99.90;;;;;;5076351;28;20409;-55
2021/03/11 04:37:05;;;;;;;8.02;4.10;;;9.20;99.90;;;;;;5084567;28;20021;-53
2021/03/11 04:39:32;;;;;;;5.57;3.67;;;9.20;99.90;;;;;;5072977;28;20021;-55
2021/03/11 04:41:58;;;;;;;4.85;3.28;;;9.20;99.90;;;;;;5081055;28;20048;-53
2021/03/11 04:44:25;;;;;;;6.50;3.75;;;9.20;99.90;;;;;;5071178;28;20034;-55
2021/03/11 04:46:53;;;;;;;6.40;3.20;;;9.20;99.90;;;;;;5074424;28;20055;-54
2021/03/11 04:49:21;;;;;;;8.60;3.88;;;9.20;99.90;;;;;;5081921;28;20508;-52
2021/03/11 04:51:48;;;;;;;4.63;2.97;;;9.20;99.90;;;;;;5080636;28;20478;-54
2021/03/11 04:54:14;;;;;;;3.80;2.72;;;9.20;99.90;;;;;;5080125;28;20028;-53
2021/03/11 04:56:42;;;;;;;4.18;2.63;;;9.20;99.90;;;;;;5083196;28;20701;-55
2021/03/11 04:59:10;;;;;;;4.43;2.33;;;9.20;99.90;;;;;;5088379;28;20058;-53
2021/03/11 05:01:39;;;;;;;4.78;2.75;;;9.30;99.90;;;;;;5081322;28;20036;-52
2021/03/11 05:04:06;;;;;;;5.38;2.83;;;9.30;99.90;;;;;;5071580;28;20032;-55
2021/03/11 05:06:32;;;;;;;4.35;2.55;;;9.30;99.90;;;;;;5071708;28;20059;-54
2021/03/11 05:08:57;;;;;;;5.90;3.20;;;9.20;99.90;;;;;;5071986;28;20071;-54
2021/03/11 05:11:23;;;;;;;3.60;2.55;;;9.30;99.90;;;;;;5075864;28;20043;-53
2021/03/11 05:13:49;;;;;;;3.70;2.65;;;9.30;99.90;;;;;;5074319;28;20040;-55
2021/03/11 05:16:14;;;;;;;4.38;2.97;;;9.30;99.90;;;;;;5086366;28;20481;-54
2021/03/11 05:18:40;;;;;;;4.82;2.53;;;9.30;99.90;;;;;;5072931;28;20028;-53
2021/03/11 05:21:07;;;;;;;3.50;2.38;;;9.30;99.90;;;;;;5073106;28;20405;-53
2021/03/11 05:23:33;;;;;;;4.95;2.42;;;9.40;99.90;;;;;;5074248;28;20032;-53
2021/03/11 05:25:58;;;;;;;3.85;2.63;;;9.30;99.90;;;;;;5072103;28;20039;-53
2021/03/11 05:28:24;;;;;;;4.35;2.83;;;9.40;99.90;;;;;;5078310;28;20502;-56
2021/03/11 05:30:50;;;;;;;4.32;3.08;;;9.40;99.90;;;;;;5076085;28;20308;-55
2021/03/11 05:33:15;;;;;;;5.60;2.40;;;9.40;99.90;;;;;;5075211;28;20082;-57
2021/03/11 05:35:41;;;;;;;4.07;2.58;;;9.40;99.90;;;;;;5071837;28;20113;-52
2021/03/11 05:38:07;;;;;;;4.57;3.15;;;9.40;99.90;;;;;;5077750;28;20029;-55
2021/03/11 05:40:33;;;;;;;4.50;2.90;;;9.40;99.90;;;;;;5074479;28;20032;-53
2021/03/11 05:43:02;;;;;;;5.65;2.90;;;9.40;99.90;;;;;;5076640;28;20056;-52
2021/03/11 05:45:28;;;;;;;5.10;2.90;;;9.50;99.90;;;;;;5080120;28;20107;-54
2021/03/11 05:47:54;;;;;;;5.28;3.47;;;9.50;99.90;;;;;;5082990;28;20149;-53
2021/03/11 05:50:20;;;;;;;5.07;3.58;;;9.50;99.90;;;;;;5085923;28;20402;-53
2021/03/11 05:52:47;;;;;;;5.47;3.00;;;9.50;99.90;;;;;;5074232;28;20501;-52
2021/03/11 05:55:12;;;;;;;4.60;3.08;;;9.60;99.90;;;;;;5079046;28;20122;-54
2021/03/11 05:57:40;;;;;;;5.03;3.30;;;9.60;99.90;;;;;;5071347;28;20100;-53
2021/03/11 06:00:07;;;;;;;5.88;3.15;;;9.60;99.90;;;;;;5081912;28;20640;-53
2021/03/11 06:02:33;;;;;;;6.57;3.70;;;9.60;99.90;;;;;;5073206;28;20017;-52
2021/03/11 06:04:59;;;;;;;10.82;3.47;;;9.70;99.90;;;;;;5071209;28;20043;-56
2021/03/11 06:07:25;;;;;;;5.20;3.13;;;9.80;99.90;;;;;;5072782;28;20051;-53
2021/03/11 06:09:55;;;;;;;6.70;3.95;;;9.80;99.90;;;;;;5070037;28;20024;-52
2021/03/11 06:12:23;;;;;;;5.78;3.65;;;9.80;99.90;;;;;;5070243;28;20064;-53
2021/03/11 06:14:54;;;;;;;5.30;3.15;;;9.90;99.90;;;;;;5077479;28;20032;-53
2021/03/11 06:17:21;;;;;;;6.82;2.80;;;9.90;99.90;;;;;;5072204;28;20029;-53
2021/03/11 06:19:47;;;;;;;5.03;3.38;;;10.00;99.90;;;;;;5070803;28;20021;-53
2021/03/11 06:22:12;;;;;;;5.63;3.90;;;10.00;99.90;;;;;;5077909;28;20401;-55
2021/03/11 06:24:38;;;;;;;7.32;3.10;;;10.00;99.90;;;;;;5072942;28;20025;-55
2021/03/11 06:27:04;;;;;;;3.88;3.13;;;10.00;99.90;;;;;;5064700;28;20683;-55
2021/03/11 06:29:40;;;;;;;5.25;3.05;;;10.00;99.90;;;;;;5055679;28;20399;-54
2021/03/11 06:32:07;;;;;;;4.80;3.15;;;10.10;99.90;;;;;;5060390;28;20060;-53
2021/03/11 06:34:39;;;;;;;4.13;2.70;;;10.10;99.90;;;;;;5059407;28;20021;-54
2021/03/11 06:37:05;;;;;;;5.22;2.83;;;10.10;99.90;;;;;;5063328;28;20105;-55
2021/03/11 06:39:33;;;;;;;4.57;2.67;;;10.10;99.90;;;;;;5077632;28;20024;-53
2021/03/11 06:41:59;;;;;;;8.75;2.80;;;10.20;99.90;;;;;;5068136;28;20060;-55
2021/03/11 06:44:40;;;;;;;3.15;2.35;;;10.20;99.90;;;;;;5067173;28;20028;-55
2021/03/11 06:47:17;;;;;;;4.93;2.65;;;10.30;99.90;;;;;;5063375;28;20367;-52
2021/03/11 06:50:03;;;;;;;2.53;1.85;;;10.30;99.90;;;;;;5069065;28;20443;-54
2021/03/11 06:52:29;;;;;;;3.90;2.45;;;10.30;99.90;;;;;;5065773;28;20043;-52
2021/03/11 06:55:04;;;;;;;3.15;2.05;;;10.40;99.90;;;;;;5070869;28;20035;-52
2021/03/11 06:57:35;;;;;;;3.55;2.13;;;10.30;99.90;;;;;;5068431;28;20150;-53
2021/03/11 07:00:20;;;;;;;4.95;2.13;;;10.30;99.90;;;;;;5046326;28;20024;-52
2021/03/11 07:02:56;;;;;;;3.03;1.90;;;10.30;99.90;;;;;;5066215;28;20027;-55
2021/03/11 07:05:24;;;;;;;3.50;2.47;;;10.30;99.90;;;;;;5065138;28;20028;-55
2021/03/11 07:08:06;;;;;;;2.67;2.00;;;10.40;99.90;;;;;;5065963;28;20016;-57
2021/03/11 07:10:32;;;;;;;3.60;1.98;;;10.40;99.90;;;;;;5071106;28;20064;-53
2021/03/11 07:12:59;;;;;;;3.40;1.60;;;10.40;99.90;;;;;;5074462;28;20036;-53
2021/03/11 07:15:27;;;;;;;5.10;2.97;;;10.40;99.90;;;;;;5067966;28;20024;-54
2021/03/11 07:17:53;;;;;;;2.03;1.83;;;10.40;99.90;;;;;;5071284;28;20028;-54
2021/03/11 07:20:28;;;;;;;1.98;1.67;;;10.40;99.90;;;;;;5051256;28;20057;-53
2021/03/11 07:23:01;;;;;;;;;;;10.50;99.90;;;;;;5066754;28;20394;-54
2021/03/11 07:25:29;;;;;;;2.80;1.50;;;10.60;99.90;;;;;;5074767;28;19961;-55
2021/03/11 07:27:56;;;;;;;2.95;1.80;;;10.60;99.90;;;;;;5067326;28;20020;-56
2021/03/11 07:30:24;;;;;;;2.33;1.88;;;10.70;99.90;;;;;;5068047;28;20075;-54
2021/03/11 07:32:56;;;;;;;3.08;1.92;;;10.80;99.90;;;;;;5069955;28;20036;-56
2021/03/11 07:35:22;;;;;;;4.50;2.05;;;10.80;99.90;;;;;;5078028;28;20029;-57
2021/03/11 07:37:49;;;;;;;4.55;1.98;;;10.90;99.90;;;;;;5073717;28;20056;-55
2021/03/11 07:40:16;;;;;;;2.70;1.90;;;10.80;99.90;;;;;;5068963;28;20134;-56
2021/03/11 07:42:43;;;;;;;3.03;2.00;;;10.90;99.90;;;;;;5067840;28;20067;-55
2021/03/11 07:45:13;;;;;;;3.85;2.60;;;10.90;99.90;;;;;;5077018;28;20036;-54
2021/03/11 07:47:40;;;;;;;3.13;2.15;;;10.90;99.90;;;;;;5069110;28;20016;-57
2021/03/11 07:50:14;;;;;;;5.68;2.10;;;11.00;99.90;;;;;;5072512;28;20021;-55
2021/03/11 07:52:40;;;;;;;4.70;3.08;;;11.00;99.90;;;;;;5066497;28;20025;-54
2021/03/11 07:55:08;;;;;;;4.78;2.53;;;11.10;99.90;;;;;;5068923;28;20106;-53
2021/03/11 07:57:39;;;;;;;6.03;2.97;;;11.10;99.90;;;;;;5067743;28;20024;-56
2021/03/11 08:00:06;;;;;;;5.13;2.60;;;11.20;99.90;;;;;;5066846;28;20069;-53
2021/03/11 08:02:33;;;;;;;4.50;2.70;;;11.20;99.90;;;;;;5067675;28;20040;-54
2021/03/11 08:04:59;;;;;;;5.10;2.75;;;11.30;99.90;;;;;;5072490;28;20151;-55
2021/03/11 08:07:26;;;;;;;5.88;3.00;;;11.40;99.90;;;;;;5075836;28;20024;-55
2021/03/11 08:09:54;;;;;;;4.88;2.65;;;11.50;99.90;;;;;;5074801;28;20033;-55
2021/03/11 08:12:37;;;;;;;5.32;2.97;;;11.60;99.90;;;;;;5080444;28;20028;-56
2021/03/11 08:15:14;;;;;;;5.70;2.75;;;11.60;99.90;;;;;;5072394;28;20040;-53
2021/03/11 08:17:42;;;;;;;4.72;3.15;;;11.60;99.90;;;;;;5083928;28;20163;-54
2021/03/11 08:20:08;;;;;;;5.22;2.60;;;11.50;99.90;;;;;;5079918;28;20024;-55
2021/03/11 08:23:01;;;;;;;4.80;2.72;;;11.40;99.90;;;;;;5076540;28;20085;-57
2021/03/11 08:25:42;;;;;;;5.85;2.50;;;11.40;99.90;;;;;;5068072;28;20028;-55
2021/03/11 08:28:07;;;;;;;4.10;2.88;;;11.40;99.90;;;;;;5078097;28;20031;-53
2021/03/11 08:30:41;;;;;;;3.70;2.55;;;11.40;99.90;;;;;;5070498;28;20050;-53
2021/03/11 08:33:35;;;;;;;3.67;2.67;;;11.50;99.90;;;;;;5070003;28;20013;-52
2021/03/11 08:36:02;;;;;;;3.58;2.42;;;11.50;99.90;;;;;;5074490;28;20036;-53
2021/03/11 08:38:29;;;;;;;3.13;2.42;;;11.60;99.90;;;;;;5070481;28;20025;-53
2021/03/11 08:41:09;;;;;;;4.80;2.55;;;11.60;99.90;;;;;;5066756;28;20044;-53
2021/03/11 08:43:38;;;;;;;4.43;2.53;;;11.70;99.90;;;;;;5067036;28;20040;-54
2021/03/11 08:46:15;;;;;;;3.42;2.38;;;11.70;99.90;;;;;;5067395;28;20108;-52
2021/03/11 08:48:42;;;;;;;5.85;2.88;;;11.80;99.90;;;;;;5069826;28;20045;-54
2021/03/11 08:51:17;;;;;;;4.32;2.72;;;11.80;99.90;;;;;;5067485;28;20595;-55
2021/03/11 08:53:45;;;;;;;4.93;2.90;;;11.80;99.90;;;;;;5073115;28;20032;-56
2021/03/11 08:56:17;;;;;;;7.00;3.55;;;11.80;99.90;;;;;;5069998;28;20025;-55
2021/03/11 08:59:02;;;;;;;7.07;2.97;;;11.80;99.90;;;;;;5074391;28;20104;-55
2021/03/11 09:01:28;;;;;;;22.42;4.22;;;11.80;99.90;;;;;;5070347;28;20125;-54
2021/03/11 09:03:54;;;;;;;4.55;2.60;;;11.70;99.90;;;;;;5074740;28;20305;-54
2021/03/11 09:06:40;;;;;;;5.68;2.20;;;11.70;99.90;;;;;;5076231;28;20050;-55
2021/03/11 09:09:06;;;;;;;7.32;2.28;;;11.70;99.90;;;;;;5072280;28;20036;-54
2021/03/11 09:11:31;;;;;;;6.22;2.50;;;11.80;99.90;;;;;;5076086;28;20078;-54
2021/03/11 09:13:57;;;;;;;3.08;2.20;;;11.80;99.90;;;;;;5075560;28;20052;-53
2021/03/11 09:16:26;;;;;;;2.95;1.95;;;11.90;99.90;;;;;;5077644;28;20046;-55
2021/03/11 09:19:01;;;;;;;4.70;2.13;;;12.00;99.90;;;;;;5069577;28;20073;-52
2021/03/11 09:21:33;;;;;;;;;;;12.00;99.90;;;;;;5067247;28;20032;-55
2021/03/11 09:23:59;;;;;;;3.00;1.85;;;12.00;99.90;;;;;;5075251;28;19940;-53
2021/03/11 09:26:25;;;;;;;1.73;1.33;;;12.10;99.90;;;;;;5069133;28;20130;-56
2021/03/11 09:28:50;;;;;;;3.35;1.30;;;12.20;99.90;;;;;;5066330;28;20043;-55
2021/03/11 09:31:26;;;;;;;6.00;2.55;;;12.30;99.90;;;;;;5068302;28;20032;-59
2021/03/11 09:33:53;;;;;;;3.35;1.60;;;12.40;99.90;;;;;;5067923;28;20024;-55
2021/03/11 09:36:19;;;;;;;10.38;4.85;;;12.30;99.90;;;;;;5066830;28;20024;-54
2021/03/11 09:38:45;;;;;;;9.30;3.67;;;12.10;99.90;;;;;;5047113;28;20032;-55
2021/03/11 09:41:11;;;;;;;3.88;2.50;;;11.90;99.90;;;;;;5066846;28;20501;-53
2021/03/11 09:43:38;;;;;;;15.38;2.80;;;11.50;99.90;;;;;;5067250;28;20035;-54
2021/03/11 09:46:07;;;;;;;9.45;2.42;;;11.30;99.90;;;;;;5066144;28;20032;-53
2021/03/11 09:48:50;;;;;;;9.88;1.63;;;11.00;99.90;;;;;;5065585;28;20055;-55
2021/03/11 09:51:20;;;;;;;11.18;2.15;;;10.70;99.90;;;;;;5063958;28;20024;-54
2021/03/11 09:53:50;;;;;;;8.38;1.73;;;10.70;99.90;;;;;;5066073;28;20043;-57
2021/03/11 09:56:23;;;;;;;19.60;3.10;;;10.70;99.90;;;;;;5063686;28;20031;-56
2021/03/11 09:59:03;;;;;;;11.57;2.13;;;10.70;99.90;;;;;;5062971;28;20085;-53
2021/03/11 10:01:33;;;;;;;12.57;2.95;;;10.70;99.90;;;;;;5065103;28;20045;-55
2021/03/11 10:04:01;;;;;;;13.35;2.80;;;10.70;99.90;;;;;;5072235;28;20070;-52
2021/03/11 10:06:29;;;;;;;11.40;2.50;;;10.70;99.90;;;;;;5066516;28;20361;-54
2021/03/11 10:08:57;;;;;;;16.08;2.63;;;10.70;99.90;;;;;;5066869;28;20349;-53
2021/03/11 10:11:44;;;;;;;24.48;3.17;;;10.80;99.90;;;;;;5047520;28;20444;-55
2021/03/11 10:14:21;;;;;;;11.98;2.17;;;10.90;99.90;;;;;;5066721;28;20035;-53
2021/03/11 10:16:48;;;;;;;11.93;2.17;;;10.90;99.90;;;;;;5065511;28;20024;-56
2021/03/11 10:19:20;;;;;;;16.27;3.50;;;10.90;99.90;;;;;;5066433;28;20035;-56
2021/03/11 10:21:48;;;;;;;15.23;2.70;;;11.00;99.90;;;;;;5064792;28;20024;-55
2021/03/11 10:24:49;;;;;;;19.45;3.15;;;11.10;99.90;;;;;;5065145;28;20052;-54
2021/03/11 10:27:34;;;;;;;9.05;2.00;;;11.20;99.90;;;;;;5067450;28;20040;-55
2021/03/11 10:30:23;;;;;;;15.88;4.50;;;11.40;99.90;;;;;;5064948;28;20417;-53
2021/03/11 10:32:59;;;;;;;14.43;1.70;;;11.80;99.90;;;;;;5067735;28;20028;-52
2021/03/11 10:35:28;;;;;;;9.40;1.77;;;12.20;99.90;;;;;;5070701;28;20112;-54
2021/03/11 10:37:53;;;;;;;8.07;2.35;;;12.50;99.90;;;;;;5072694;28;20026;-54
2021/03/11 10:40:22;;;;;;;9.20;2.28;;;12.70;99.90;;;;;;5075081;28;20056;-56
2021/03/11 10:42:50;;;;;;;14.85;2.10;;;13.00;99.90;;;;;;5069545;28;20452;-57
2021/03/11 10:45:24;;;;;;;20.85;1.95;;;13.30;99.90;;;;;;5068477;28;20029;-55
2021/03/11 10:48:00;;;;;;;8.20;1.58;;;13.50;99.90;;;;;;5069981;28;20025;-56
2021/03/11 10:50:26;;;;;;;12.30;1.98;;;13.60;99.90;;;;;;5075557;28;20024;-57
2021/03/11 10:52:55;;;;;;;13.98;2.42;;;13.80;99.90;;;;;;5070439;28;20028;-56
2021/03/11 10:55:29;;;;;;;15.63;2.78;;;14.00;99.90;;;;;;5068988;28;20032;-56
2021/03/11 10:57:54;;;;;;;8.25;1.95;;;14.10;99.90;;;;;;5068127;28;20035;-56
2021/03/11 11:00:22;;;;;;;14.52;2.33;;;14.30;99.90;;;;;;5067710;28;20024;-57
2021/03/11 11:02:53;;;;;;;6.55;1.50;;;14.20;99.90;;;;;;5075799;28;20444;-56
2021/03/11 11:05:18;;;;;;;6.40;1.23;;;14.30;99.90;;;;;;5072258;28;20020;-57
2021/03/11 11:07:44;;;;;;;8.82;1.80;;;14.40;99.90;;;;;;5068973;28;20085;-57
2021/03/11 11:10:10;;;;;;;12.88;1.80;;;14.60;99.90;;;;;;5069032;28;20052;-58
2021/03/11 11:12:36;;;;;;;7.60;1.88;;;14.70;99.90;;;;;;5068796;28;20044;-56
2021/03/11 11:15:02;;;;;;;13.60;2.53;;;14.70;99.90;;;;;;5068564;28;20024;-57
2021/03/11 11:17:28;;;;;;;11.38;2.33;;;14.80;99.90;;;;;;5068428;28;20132;-58
2021/03/11 11:19:54;;;;;;;12.55;1.70;;;14.90;99.90;;;;;;5072927;28;20024;-58
2021/03/11 11:22:19;;;;;;;10.93;1.52;;;15.10;99.90;;;;;;5077908;28;20044;-57
2021/03/11 11:24:45;;;;;;;14.43;1.90;;;15.10;99.90;;;;;;5071883;28;20021;-57
2021/03/11 11:27:13;;;;;;;7.53;1.60;;;15.20;99.90;;;;;;5067820;28;20028;-58
2021/03/11 11:29:39;;;;;;;10.80;1.85;;;15.10;99.90;;;;;;5068452;28;20181;-59
2021/03/11 11:32:05;;;;;;;9.93;1.67;;;15.10;99.90;;;;;;5074046;28;20210;-58
2021/03/11 11:34:31;;;;;;;7.60;1.52;;;15.00;99.90;;;;;;5068129;28;20077;-59
2021/03/11 11:36:57;;;;;;;11.02;1.70;;;15.00;99.90;;;;;;5070039;28;20128;-56
2021/03/11 11:39:22;;;;;;;21.13;2.33;;;14.90;99.90;;;;;;5072940;28;20047;-57
2021/03/11 11:41:50;;;;;;;9.48;1.77;;;14.90;99.90;;;;;;5072369;28;20036;-58
2021/03/11 11:44:16;;;;;;;9.98;1.90;;;14.70;99.90;;;;;;5055243;22;20203;-56
2021/03/11 11:46:43;;;;;;;16.80;2.70;;;14.80;99.90;;;;;;5050849;28;20078;-56
2021/03/11 11:49:09;;;;;;;15.57;3.13;;;14.70;99.90;;;;;;5051089;28;20017;-58
2021/03/11 11:51:35;;;;;;;12.15;2.40;;;14.60;99.90;;;;;;5050737;28;20108;-55
2021/03/11 11:54:01;;;;;;;8.88;2.30;;;14.60;99.90;;;;;;5051982;28;20057;-53
2021/03/11 11:56:27;;;;;;;14.30;2.22;;;14.60;99.90;;;;;;5050536;28;20108;-54
2021/03/11 11:58:52;;;;;;;12.77;2.08;;;14.60;99.90;;;;;;5050403;28;20036;-52
2021/03/11 12:01:18;;;;;;;18.27;3.95;;;14.60;99.90;;;;;;5050023;28;20040;-56
2021/03/11 12:03:44;;;;;;;17.25;3.17;;;14.70;99.90;;;;;;5051616;28;20524;-55
2021/03/11 12:06:09;;;;;;;14.13;3.15;;;14.70;99.90;;;;;;5051434;28;20141;-54
2021/03/11 12:08:35;;;;;;;16.17;2.15;;;14.60;99.90;;;;;;5052498;28;20102;-56
2021/03/11 12:11:01;;;;;;;12.32;2.28;;;14.60;99.90;;;;;;5050683;28;20025;-55
2021/03/11 12:13:27;;;;;;;16.75;2.80;;;14.80;99.90;;;;;;5045983;28;20021;-54
2021/03/11 12:15:53;;;;;;;12.40;2.33;;;15.00;99.90;;;;;;5048029;28;20437;-56
2021/03/11 12:18:18;;;;;;;12.98;2.58;;;15.30;99.90;;;;;;5046390;28;20124;-57
2021/03/11 12:20:44;;;;;;;19.35;2.80;;;15.70;99.90;;;;;;5047732;28;20111;-54
2021/03/11 12:23:10;;;;;;;10.07;2.20;;;15.90;99.90;;;;;;5048878;28;20040;-56
2021/03/11 12:25:36;;;;;;;11.40;2.47;;;16.20;99.90;;;;;;5050533;28;20029;-56
2021/03/11 12:28:03;;;;;;;15.70;3.05;;;16.00;99.90;;;;;;5048126;28;20566;-54
2021/03/11 12:30:30;;;;;;;10.88;2.55;;;15.60;99.90;;;;;;5049170;28;20033;-54
2021/03/11 12:32:57;;;;;;;21.33;2.63;;;15.40;99.90;;;;;;5048476;28;20024;-55
2021/03/11 12:35:23;;;;;;;10.18;2.33;;;15.20;99.90;;;;;;5050084;28;20490;-56
2021/03/11 12:37:50;;;;;;;13.60;2.78;;;15.00;99.90;;;;;;5051291;28;20130;-56
2021/03/11 12:40:16;;;;;;;19.20;3.28;;;14.80;99.90;;;;;;5051343;28;20037;-56
2021/03/11 12:42:46;;;;;;;10.48;2.00;;;14.80;99.90;;;;;;5049877;28;20112;-57
2021/03/11 12:45:16;;;;;;;14.90;2.58;;;14.90;99.90;;;;;;5050011;28;20032;-57
2021/03/11 12:47:43;;;;;;;16.27;2.20;;;15.20;99.90;;;;;;5050089;28;20033;-58
2021/03/11 12:50:09;;;;;;;15.15;2.30;;;15.50;99.90;;;;;;5051718;28;20029;-57
2021/03/11 12:52:34;;;;;;;13.02;2.17;;;15.60;99.90;;;;;;5049437;28;20025;-58
2021/03/11 12:55:00;;;;;;;15.27;2.28;;;15.80;99.90;;;;;;5049531;28;20104;-57
2021/03/11 12:57:26;;;;;;;16.42;2.00;;;15.70;99.90;;;;;;5047981;28;20360;-57
2021/03/11 12:59:51;;;;;;;12.75;2.60;;;15.70;99.90;;;;;;5050172;28;20067;-57
2021/03/11 13:02:17;;;;;;;13.07;1.98;;;15.90;99.90;;;;;;5050815;28;20043;-58
2021/03/11 13:04:43;;;;;;;16.38;2.55;;;15.90;99.90;;;;;;5049981;28;20116;-57
2021/03/11 14:13:58;;;;;;;6.75;1.42;;;15.80;99.90;;;;;;5081807;28;20026;-58